Time;durP1;ratioP1;P1;durP2;ratioP2;P2;SDS_P1;SDS_P2;PMS_P1;PMS_P2;Temp;Humidity;BMP_temperature;BMP_pressure;BME280_temperature;BME280_humidity;BME280_pressure;Samples;Min_cycle;Max_cycle;Signal;HPM_P1;HPM_P2
2020/12/29 00:00:32;;;;;;;34.43;17.13;;;1.30;99.90;;;;;;5091519;28;20055;-72
2020/12/29 00:02:59;;;;;;;34.23;16.47;;;1.40;99.90;;;;;;5075184;28;20048;-73
2020/12/29 00:05:26;;;;;;;34.33;17.60;;;1.30;99.90;;;;;;5085719;28;20048;-71
2020/12/29 00:07:56;;;;;;;32.57;16.10;;;1.30;99.90;;;;;;5093952;28;20040;-71
2020/12/29 00:10:24;;;;;;;32.37;17.23;;;1.40;99.90;;;;;;5093656;28;20393;-71
2020/12/29 00:12:51;;;;;;;33.33;17.57;;;1.30;99.90;;;;;;5082566;28;20052;-71
2020/12/29 00:15:19;;;;;;;36.00;17.70;;;1.30;99.90;;;;;;5081726;28;20420;-72
2020/12/29 00:17:46;;;;;;;30.80;16.43;;;1.30;99.90;;;;;;5079633;28;20044;-73
2020/12/29 00:20:13;;;;;;;32.23;17.37;;;1.30;99.90;;;;;;5080844;28;20052;-72
2020/12/29 00:22:39;;;;;;;31.93;16.50;;;1.30;99.90;;;;;;5078307;28;20044;-75
2020/12/29 00:25:06;;;;;;;30.80;15.33;;;1.30;99.90;;;;;;5080899;28;20570;-71
2020/12/29 00:27:33;;;;;;;30.37;16.70;;;1.30;99.90;;;;;;5096949;28;20048;-71
2020/12/29 00:30:00;;;;;;;34.10;17.43;;;1.30;99.90;;;;;;5088540;28;20625;-73
2020/12/29 00:32:27;;;;;;;38.43;17.13;;;1.30;99.90;;;;;;5085169;28;20044;-74
2020/12/29 00:34:57;;;;;;;29.43;16.30;;;1.40;99.90;;;;;;5081690;28;20052;-73
2020/12/29 00:37:24;;;;;;;32.50;16.33;;;1.40;99.90;;;;;;5085254;28;20060;-73
2020/12/29 00:39:50;;;;;;;33.67;17.00;;;1.40;99.90;;;;;;5076621;28;20501;-71
2020/12/29 00:42:17;;;;;;;33.93;17.17;;;1.50;99.90;;;;;;5072942;28;20075;-73
2020/12/29 00:44:44;;;;;;;30.30;16.97;;;1.50;99.90;;;;;;5083879;28;20048;-75
2020/12/29 00:47:10;;;;;;;31.50;16.80;;;1.50;99.90;;;;;;5085826;28;20113;-70
2020/12/29 00:49:39;;;;;;;30.10;16.03;;;1.50;99.90;;;;;;5081902;28;20146;-71
2020/12/29 00:52:06;;;;;;;33.87;17.67;;;1.50;99.90;;;;;;5074977;28;20044;-73
2020/12/29 00:54:33;;;;;;;30.13;14.90;;;1.50;99.90;;;;;;5089036;28;20070;-71
2020/12/29 00:57:00;;;;;;;29.30;14.77;;;1.60;99.90;;;;;;5077787;28;20049;-71
2020/12/29 00:59:26;;;;;;;28.30;14.63;;;1.70;99.90;;;;;;5088910;28;20051;-72
2020/12/29 01:01:56;;;;;;;29.07;15.03;;;1.80;99.90;;;;;;5076498;28;20044;-71
2020/12/29 01:04:24;;;;;;;25.17;13.90;;;1.80;99.90;;;;;;5095582;28;20100;-71
2020/12/29 01:06:51;;;;;;;23.73;12.97;;;1.90;99.90;;;;;;5094030;28;20040;-75
2020/12/29 01:09:19;;;;;;;26.83;14.03;;;1.90;99.90;;;;;;5090130;28;20167;-71
2020/12/29 01:11:45;;;;;;;22.83;13.67;;;1.80;99.90;;;;;;5084915;28;20044;-71
2020/12/29 01:14:12;;;;;;;26.63;13.27;;;1.80;99.90;;;;;;5093675;28;20052;-72
2020/12/29 01:16:40;;;;;;;27.43;14.50;;;1.90;99.90;;;;;;5075349;28;20056;-75
2020/12/29 01:19:07;;;;;;;27.53;15.10;;;1.90;99.90;;;;;;5085098;28;20117;-73
2020/12/29 01:21:34;;;;;;;26.53;13.43;;;1.90;99.90;;;;;;5097279;28;20051;-72
2020/12/29 01:24:02;;;;;;;24.70;14.03;;;2.00;99.90;;;;;;5094041;28;20097;-75
2020/12/29 01:26:28;;;;;;;27.23;13.70;;;1.90;99.90;;;;;;5093399;28;20044;-71
2020/12/29 01:28:55;;;;;;;27.17;13.43;;;1.80;99.90;;;;;;5088769;28;20046;-69
2020/12/29 01:31:26;;;;;;;29.33;14.07;;;1.80;99.90;;;;;;5090859;28;20044;-73
2020/12/29 01:33:53;;;;;;;25.43;14.03;;;1.80;99.90;;;;;;5074709;28;20049;-73
2020/12/29 01:36:20;;;;;;;28.07;14.33;;;1.80;99.90;;;;;;5091050;28;20063;-71
2020/12/29 01:38:46;;;;;;;24.97;13.60;;;1.80;99.90;;;;;;5098778;28;20052;-71
2020/12/29 01:41:14;;;;;;;25.43;14.07;;;1.80;99.90;;;;;;5076249;28;20060;-75
2020/12/29 01:43:41;;;;;;;27.70;13.63;;;1.80;99.90;;;;;;5079877;28;20047;-71
2020/12/29 01:46:07;;;;;;;24.87;14.33;;;1.80;99.90;;;;;;5092860;28;20425;-75
2020/12/29 01:48:34;;;;;;;24.30;13.67;;;1.80;99.90;;;;;;5090965;28;20052;-71
2020/12/29 01:51:01;;;;;;;28.57;14.13;;;1.80;99.90;;;;;;5091899;28;20056;-72
2020/12/29 01:53:28;;;;;;;24.90;13.63;;;1.90;99.90;;;;;;5092003;28;20048;-72
2020/12/29 01:55:55;;;;;;;25.53;13.97;;;1.80;99.90;;;;;;5091175;28;20055;-72
2020/12/29 01:58:23;;;;;;;25.27;13.43;;;1.80;99.90;;;;;;5091786;28;20052;-73
2020/12/29 02:00:50;;;;;;;25.87;12.90;;;1.80;99.90;;;;;;5090427;28;20048;-76
2020/12/29 02:03:18;;;;;;;22.77;12.80;;;2.00;99.90;;;;;;5092005;28;20329;-72
2020/12/29 02:05:47;;;;;;;23.33;12.03;;;1.90;99.90;;;;;;5090657;28;20047;-71
2020/12/29 02:08:14;;;;;;;22.93;11.63;;;2.00;99.90;;;;;;5091936;28;20517;-75
2020/12/29 02:10:42;;;;;;;22.67;11.13;;;1.90;99.90;;;;;;5098189;28;20502;-73
2020/12/29 02:13:09;;;;;;;20.20;11.10;;;2.00;99.90;;;;;;5107574;28;20051;-72
2020/12/29 02:15:39;;;;;;;21.03;11.10;;;2.00;99.90;;;;;;5101297;28;20111;-71
2020/12/29 02:18:06;;;;;;;22.50;12.60;;;2.00;99.90;;;;;;5108571;27;20047;-71
2020/12/29 02:20:32;;;;;;;20.77;10.77;;;2.00;99.90;;;;;;5100318;28;20059;-72
2020/12/29 02:23:00;;;;;;;18.47;10.60;;;2.00;99.90;;;;;;5105732;28;20047;-71
2020/12/29 02:25:27;;;;;;;20.93;11.30;;;2.00;99.90;;;;;;5109350;28;20043;-72
2020/12/29 02:27:54;;;;;;;19.43;10.00;;;2.10;99.90;;;;;;5104550;28;20052;-72
2020/12/29 02:30:21;;;;;;;22.27;10.67;;;2.20;99.90;;;;;;5111372;28;20043;-75
2020/12/29 02:32:48;;;;;;;17.97;9.73;;;2.20;99.90;;;;;;5112122;28;20063;-72
2020/12/29 02:35:15;;;;;;;21.00;11.07;;;2.10;99.90;;;;;;5095750;28;20089;-71
2020/12/29 02:37:42;;;;;;;20.67;10.53;;;2.10;99.90;;;;;;5091710;28;20071;-75
2020/12/29 02:40:10;;;;;;;17.97;9.67;;;2.10;99.90;;;;;;5090142;28;20055;-72
2020/12/29 02:42:37;;;;;;;18.37;9.40;;;2.20;99.90;;;;;;5075126;28;20060;-75
2020/12/29 02:45:04;;;;;;;17.93;9.40;;;2.20;99.90;;;;;;5092522;28;20131;-72
2020/12/29 02:47:31;;;;;;;18.57;8.50;;;2.20;99.90;;;;;;5110256;28;20076;-72
2020/12/29 02:49:58;;;;;;;13.53;7.10;;;2.40;99.90;;;;;;5111940;28;20112;-73
2020/12/29 02:52:25;;;;;;;13.60;6.80;;;2.40;99.90;;;;;;5099156;28;20420;-69
2020/12/29 02:54:53;;;;;;;13.20;6.73;;;2.40;99.90;;;;;;5099392;28;20059;-69
2020/12/29 02:57:20;;;;;;;12.23;6.53;;;2.40;99.90;;;;;;5100024;28;20050;-69
2020/12/29 02:59:47;;;;;;;13.07;6.93;;;2.40;99.90;;;;;;5105878;28;20055;-68
2020/12/29 03:02:14;;;;;;;17.03;7.27;;;2.40;99.90;;;;;;5103574;28;20056;-69
2020/12/29 03:04:40;;;;;;;12.70;6.63;;;2.40;99.90;;;;;;5105998;28;20084;-69
2020/12/29 03:07:07;;;;;;;14.97;7.40;;;2.40;99.90;;;;;;5099606;28;20052;-69
2020/12/29 03:09:34;;;;;;;12.23;6.77;;;2.40;99.90;;;;;;5104938;28;20130;-69
2020/12/29 03:12:01;;;;;;;14.93;6.70;;;2.40;99.90;;;;;;5101411;28;20055;-69
2020/12/29 03:14:28;;;;;;;14.40;6.97;;;2.40;99.90;;;;;;5104210;28;20048;-69
2020/12/29 03:16:55;;;;;;;12.47;6.83;;;2.40;99.90;;;;;;5105345;28;20044;-69
2020/12/29 03:19:22;;;;;;;16.53;6.57;;;2.40;99.90;;;;;;5107090;28;20054;-69
2020/12/29 03:21:50;;;;;;;13.73;6.73;;;2.40;99.90;;;;;;5100856;28;20035;-68
2020/12/29 03:24:18;;;;;;;14.83;7.47;;;2.40;99.90;;;;;;5095647;28;20050;-69
2020/12/29 03:26:44;;;;;;;12.67;6.40;;;2.40;99.90;;;;;;5095452;28;20054;-69
2020/12/29 03:29:11;;;;;;;14.20;7.50;;;2.40;99.90;;;;;;5094440;28;20044;-69
2020/12/29 03:31:43;;;;;;;14.13;7.20;;;2.40;99.90;;;;;;5093543;28;20048;-69
2020/12/29 03:34:10;;;;;;;12.87;7.40;;;2.30;99.90;;;;;;5089403;28;20394;-69
2020/12/29 03:36:37;;;;;;;13.63;7.17;;;2.30;99.90;;;;;;5089650;28;20079;-69
2020/12/29 03:39:04;;;;;;;17.30;6.80;;;2.20;99.90;;;;;;5087692;28;20116;-69
2020/12/29 03:41:30;;;;;;;15.30;6.23;;;2.20;99.90;;;;;;5084973;28;20051;-69
2020/12/29 03:43:57;;;;;;;15.13;7.50;;;2.10;99.90;;;;;;5090176;28;20397;-69
2020/12/29 03:46:24;;;;;;;12.70;6.97;;;2.20;99.90;;;;;;5097921;28;20439;-69
2020/12/29 03:48:51;;;;;;;15.70;7.53;;;2.20;99.90;;;;;;5097529;28;20044;-69
2020/12/29 03:51:18;;;;;;;13.13;6.97;;;2.10;99.90;;;;;;5097082;28;20058;-69
2020/12/29 03:53:44;;;;;;;13.87;6.90;;;2.10;99.90;;;;;;5098148;28;20093;-70
2020/12/29 03:56:11;;;;;;;13.20;6.73;;;2.10;99.90;;;;;;5096609;28;20056;-69
2020/12/29 03:58:38;;;;;;;13.47;7.13;;;2.10;99.90;;;;;;5098440;28;20508;-70
2020/12/29 04:01:04;;;;;;;13.00;7.10;;;2.10;99.90;;;;;;5089025;28;20117;-69
2020/12/29 04:03:31;;;;;;;13.13;7.37;;;2.10;99.90;;;;;;5086741;28;20044;-69
2020/12/29 04:05:58;;;;;;;15.00;7.30;;;2.10;99.90;;;;;;5089653;28;20047;-69
2020/12/29 04:08:25;;;;;;;13.83;7.07;;;2.10;99.90;;;;;;5089019;28;20514;-69
2020/12/29 04:10:52;;;;;;;13.13;6.87;;;2.10;99.90;;;;;;5086234;28;20054;-69
2020/12/29 04:13:18;;;;;;;12.50;6.77;;;2.10;99.90;;;;;;5088061;28;20051;-68
2020/12/29 04:15:45;;;;;;;12.90;6.77;;;2.10;99.90;;;;;;5091122;28;20044;-72
2020/12/29 04:18:12;;;;;;;12.10;6.63;;;2.10;99.90;;;;;;5095517;28;20051;-69
2020/12/29 04:20:38;;;;;;;12.93;7.10;;;2.10;99.90;;;;;;5088720;28;20055;-69
2020/12/29 04:23:06;;;;;;;13.20;7.00;;;2.10;99.90;;;;;;5092754;28;20407;-69
2020/12/29 04:25:33;;;;;;;12.07;6.27;;;2.10;99.90;;;;;;5095781;28;20090;-69
2020/12/29 04:27:59;;;;;;;12.67;6.37;;;2.10;99.90;;;;;;5088401;28;20052;-69
2020/12/29 04:30:26;;;;;;;13.40;7.03;;;2.20;99.90;;;;;;5086929;28;20051;-69
2020/12/29 04:32:52;;;;;;;12.27;7.03;;;2.20;99.90;;;;;;5085679;28;20043;-69
2020/12/29 04:35:19;;;;;;;14.07;6.97;;;2.10;99.90;;;;;;5089797;28;20048;-69
2020/12/29 04:37:46;;;;;;;13.23;6.33;;;2.20;99.90;;;;;;5089096;28;20408;-69
2020/12/29 04:40:13;;;;;;;13.80;7.27;;;2.20;99.90;;;;;;5088138;28;20052;-69
2020/12/29 04:42:41;;;;;;;14.37;7.17;;;2.20;99.90;;;;;;5089449;28;20051;-70
2020/12/29 04:45:08;;;;;;;14.30;6.87;;;2.20;99.90;;;;;;5088336;28;20074;-69
2020/12/29 04:47:35;;;;;;;11.33;5.77;;;2.20;99.90;;;;;;5089694;28;20055;-69
2020/12/29 04:50:03;;;;;;;11.23;6.00;;;2.30;99.90;;;;;;5105378;28;20048;-69
2020/12/29 04:52:31;;;;;;;10.90;5.47;;;2.20;99.90;;;;;;5111565;28;20403;-69
2020/12/29 04:54:58;;;;;;;13.20;5.23;;;2.30;99.90;;;;;;5113406;28;20062;-70
2020/12/29 04:57:26;;;;;;;11.50;5.87;;;2.30;99.90;;;;;;5110374;28;20511;-69
2020/12/29 04:59:53;;;;;;;14.27;5.57;;;2.30;99.90;;;;;;5093046;28;20138;-69
2020/12/29 05:02:20;;;;;;;11.77;6.13;;;2.30;99.90;;;;;;5091666;28;20459;-69
2020/12/29 05:04:47;;;;;;;10.33;5.47;;;2.30;99.90;;;;;;5093291;28;20052;-69
2020/12/29 05:07:14;;;;;;;10.10;5.40;;;2.30;99.90;;;;;;5092152;28;20682;-69
2020/12/29 05:09:40;;;;;;;11.60;6.00;;;2.20;99.90;;;;;;5093170;28;20138;-69
2020/12/29 05:12:07;;;;;;;11.40;6.10;;;2.10;99.90;;;;;;5091826;28;20055;-69
2020/12/29 05:14:35;;;;;;;11.77;6.43;;;2.10;99.90;;;;;;5092445;28;20044;-68
2020/12/29 05:17:02;;;;;;;12.43;5.97;;;2.20;99.90;;;;;;5092979;28;20123;-69
2020/12/29 05:19:33;;;;;;;10.13;5.53;;;2.10;99.90;;;;;;5092125;28;20059;-69
2020/12/29 05:22:00;;;;;;;11.30;6.13;;;2.20;99.90;;;;;;5092651;28;20052;-69
2020/12/29 05:24:27;;;;;;;13.73;6.10;;;2.10;99.90;;;;;;5091932;28;20485;-69
2020/12/29 05:26:55;;;;;;;13.80;6.20;;;2.00;99.90;;;;;;5092534;28;20052;-70
2020/12/29 05:29:23;;;;;;;12.23;5.80;;;2.00;99.90;;;;;;5091516;28;20070;-70
2020/12/29 05:31:50;;;;;;;10.33;5.17;;;2.00;99.90;;;;;;5092099;28;20044;-70
2020/12/29 05:34:22;;;;;;;10.70;5.97;;;2.00;99.90;;;;;;5091759;28;20063;-69
2020/12/29 05:36:49;;;;;;;13.00;6.60;;;2.10;99.90;;;;;;5092441;28;20053;-69
2020/12/29 05:39:16;;;;;;;14.50;5.70;;;2.00;99.90;;;;;;5092118;28;20077;-69
2020/12/29 05:41:45;;;;;;;12.07;6.10;;;2.10;99.90;;;;;;5091247;28;20052;-69
2020/12/29 05:44:25;;;;;;;11.83;5.90;;;2.10;99.90;;;;;;5092386;28;20443;-69
2020/12/29 05:46:52;;;;;;;10.33;5.30;;;2.10;99.90;;;;;;5091348;28;20048;-69
2020/12/29 05:49:20;;;;;;;12.10;6.50;;;2.10;99.90;;;;;;5092391;28;20138;-69
2020/12/29 05:51:48;;;;;;;9.57;5.00;;;2.10;99.90;;;;;;5091212;28;20052;-70
2020/12/29 05:54:16;;;;;;;10.10;5.10;;;2.10;99.90;;;;;;5093628;28;20055;-69
2020/12/29 05:56:43;;;;;;;8.63;5.13;;;2.20;99.90;;;;;;5092996;28;20097;-70
2020/12/29 05:59:12;;;;;;;10.07;5.27;;;2.20;99.90;;;;;;5093725;28;20052;-69
2020/12/29 06:01:43;;;;;;;10.23;5.00;;;2.20;99.90;;;;;;5093266;28;20059;-69
2020/12/29 06:04:11;;;;;;;9.20;4.83;;;2.20;99.90;;;;;;5092926;28;20055;-70
2020/12/29 06:06:40;;;;;;;11.00;4.60;;;2.30;99.90;;;;;;5092125;28;20143;-70
2020/12/29 06:09:08;;;;;;;9.27;4.70;;;2.40;99.90;;;;;;5091461;28;20062;-70
2020/12/29 06:11:56;;;;;;;8.80;3.80;;;2.40;99.90;;;;;;5091903;28;20055;-70
2020/12/29 06:14:24;;;;;;;7.77;4.17;;;2.50;99.90;;;;;;5092062;28;20412;-69
2020/12/29 06:16:52;;;;;;;6.20;2.77;;;2.60;99.90;;;;;;5092411;28;20060;-68
2020/12/29 06:19:27;;;;;;;6.80;3.17;;;2.70;99.90;;;;;;5091015;28;20621;-69
2020/12/29 06:22:05;;;;;;;7.30;2.80;;;2.80;99.90;;;;;;5091653;28;20382;-70
2020/12/29 06:24:33;;;;;;;5.90;2.63;;;2.90;99.90;;;;;;5091282;28;20454;-70
2020/12/29 06:27:01;;;;;;;4.93;2.43;;;3.00;99.90;;;;;;5090817;28;20059;-69
2020/12/29 06:29:33;;;;;;;5.57;2.40;;;3.00;99.90;;;;;;5091131;28;20052;-70
2020/12/29 06:32:05;;;;;;;4.77;2.23;;;3.00;99.90;;;;;;5089710;28;20378;-69
2020/12/29 06:34:34;;;;;;;8.87;2.70;;;3.10;99.90;;;;;;5091491;28;20484;-69
2020/12/29 06:37:24;;;;;;;3.73;2.10;;;3.10;99.90;;;;;;5090528;28;20060;-69
2020/12/29 06:39:54;;;;;;;4.17;2.10;;;3.20;99.90;;;;;;5086120;28;20044;-69
2020/12/29 06:42:21;;;;;;;6.33;2.27;;;3.10;99.90;;;;;;5089930;28;20512;-70
2020/12/29 06:44:55;;;;;;;6.03;2.53;;;3.10;99.90;;;;;;5091370;28;20056;-69
2020/12/29 06:47:23;;;;;;;4.40;2.13;;;3.10;99.90;;;;;;5089983;28;20048;-69
2020/12/29 06:49:52;;;;;;;5.73;2.30;;;3.10;99.90;;;;;;5091307;28;20052;-70
2020/12/29 06:52:28;;;;;;;6.97;2.93;;;3.10;99.90;;;;;;5090535;28;20056;-70
2020/12/29 06:54:59;;;;;;;6.93;2.10;;;3.10;99.90;;;;;;5090581;28;20493;-70
2020/12/29 06:57:45;;;;;;;5.27;2.20;;;3.10;99.90;;;;;;5090917;28;20203;-70
2020/12/29 07:00:17;;;;;;;3.73;2.00;;;3.20;99.90;;;;;;5089448;28;20451;-69
2020/12/29 07:02:47;;;;;;;5.83;2.20;;;3.10;99.90;;;;;;5090806;28;20493;-70
2020/12/29 07:05:15;;;;;;;6.80;2.40;;;3.10;99.90;;;;;;5089976;28;20044;-70
2020/12/29 07:07:54;;;;;;;5.20;1.83;;;3.20;99.90;;;;;;5090676;28;20523;-69
2020/12/29 07:10:21;;;;;;;3.13;1.50;;;3.30;99.90;;;;;;5088928;28;20048;-70
2020/12/29 07:12:50;;;;;;;3.83;1.83;;;3.30;99.90;;;;;;5090602;28;20055;-70
2020/12/29 07:15:19;;;;;;;3.40;1.80;;;3.40;99.90;;;;;;5089121;28;20082;-70
2020/12/29 07:18:00;;;;;;;3.50;1.20;;;3.40;99.90;;;;;;5089714;28;20048;-69
2020/12/29 07:20:31;;;;;;;5.70;1.60;;;3.40;99.90;;;;;;5089848;28;20052;-70
2020/12/29 07:23:03;;;;;;;4.70;1.30;;;3.40;99.90;;;;;;5089637;28;20060;-70
2020/12/29 07:25:31;;;;;;;6.37;1.87;;;3.50;99.90;;;;;;5089798;28;20052;-70
2020/12/29 07:28:01;;;;;;;2.80;1.27;;;3.40;99.90;;;;;;5089171;28;20627;-70
2020/12/29 07:30:29;;;;;;;4.03;1.80;;;3.40;99.90;;;;;;5089568;28;20052;-70
2020/12/29 07:33:01;;;;;;;3.87;1.40;;;3.40;99.90;;;;;;5089358;28;20523;-70
2020/12/29 07:35:30;;;;;;;3.97;1.33;;;3.50;99.90;;;;;;5090378;28;20644;-70
2020/12/29 07:37:58;;;;;;;3.37;1.20;;;3.40;99.90;;;;;;5089694;28;20052;-69
2020/12/29 07:40:26;;;;;;;6.27;1.43;;;3.40;99.90;;;;;;5089013;28;20048;-69
2020/12/29 07:42:54;;;;;;;3.23;1.70;;;3.40;99.90;;;;;;5090115;28;20048;-69
2020/12/29 07:45:23;;;;;;;5.70;1.23;;;3.40;99.90;;;;;;5089154;28;20094;-70
2020/12/29 07:47:50;;;;;;;2.70;1.33;;;3.40;99.90;;;;;;5090033;28;20080;-70
2020/12/29 07:50:17;;;;;;;4.20;1.50;;;3.40;99.90;;;;;;5088453;28;20798;-70
2020/12/29 07:52:44;;;;;;;3.33;1.33;;;3.40;99.90;;;;;;5089816;28;20044;-69
2020/12/29 07:55:12;;;;;;;2.00;1.10;;;3.40;99.90;;;;;;5088578;28;20525;-70
2020/12/29 07:57:40;;;;;;;3.93;1.50;;;3.40;99.90;;;;;;5090074;28;20109;-70
2020/12/29 08:00:08;;;;;;;2.80;1.50;;;3.40;99.90;;;;;;5089366;28;20125;-70
2020/12/29 08:02:34;;;;;;;2.97;1.30;;;3.40;99.90;;;;;;5089480;28;20135;-69
2020/12/29 08:05:01;;;;;;;5.07;1.50;;;3.40;99.90;;;;;;5089858;28;20055;-69
2020/12/29 08:07:28;;;;;;;2.90;1.20;;;3.40;99.90;;;;;;5088575;28;20056;-69
2020/12/29 08:09:56;;;;;;;3.57;1.53;;;3.50;99.90;;;;;;5089627;28;20059;-70
2020/12/29 08:12:22;;;;;;;5.40;2.13;;;3.40;99.90;;;;;;5088125;28;20048;-70
2020/12/29 08:14:49;;;;;;;3.83;1.00;;;3.40;99.90;;;;;;5089760;28;20048;-70
2020/12/29 08:17:16;;;;;;;3.17;1.27;;;3.30;99.90;;;;;;5089174;28;20067;-70
2020/12/29 08:19:42;;;;;;;4.83;1.47;;;3.30;99.90;;;;;;5089445;28;20134;-70
2020/12/29 08:22:11;;;;;;;3.20;1.30;;;3.30;99.90;;;;;;5089013;28;20055;-71
2020/12/29 08:24:41;;;;;;;2.53;1.00;;;3.20;99.90;;;;;;5088384;28;20500;-70
2020/12/29 08:27:09;;;;;;;3.10;1.20;;;3.20;99.90;;;;;;5089405;28;20066;-70
2020/12/29 08:29:36;;;;;;;4.07;1.77;;;3.20;99.90;;;;;;5088557;28;20044;-71
2020/12/29 08:32:07;;;;;;;4.20;1.10;;;3.20;99.90;;;;;;5088783;28;20545;-71
2020/12/29 08:34:35;;;;;;;5.90;1.27;;;3.10;99.90;;;;;;5088199;28;20102;-71
2020/12/29 08:37:03;;;;;;;4.50;1.30;;;3.10;99.90;;;;;;5089446;28;20101;-71
2020/12/29 08:39:46;;;;;;;4.10;1.50;;;3.00;99.90;;;;;;5089375;28;20048;-71
2020/12/29 08:42:17;;;;;;;5.47;1.30;;;3.10;99.90;;;;;;5088464;28;20063;-71
2020/12/29 08:44:44;;;;;;;4.13;1.47;;;3.10;99.90;;;;;;5089602;28;20549;-71
2020/12/29 08:47:12;;;;;;;3.93;1.50;;;3.10;99.90;;;;;;5088470;28;20058;-71
2020/12/29 08:49:39;;;;;;;2.40;1.10;;;3.00;99.90;;;;;;5089467;28;20052;-71
2020/12/29 08:52:06;;;;;;;2.53;0.87;;;3.00;99.90;;;;;;5088099;28;20063;-71
2020/12/29 08:54:37;;;;;;;4.53;1.20;;;3.00;99.90;;;;;;5089325;28;20052;-71
2020/12/29 08:57:06;;;;;;;3.43;1.40;;;2.90;99.90;;;;;;5088127;28;20509;-71
2020/12/29 08:59:37;;;;;;;3.67;1.00;;;2.90;99.90;;;;;;5089345;28;20048;-71
2020/12/29 09:02:05;;;;;;;1.87;1.00;;;2.90;99.90;;;;;;5087941;28;20063;-71
2020/12/29 09:04:33;;;;;;;2.83;1.27;;;2.80;99.90;;;;;;5089303;28;20104;-71
2020/12/29 09:07:03;;;;;;;3.87;0.90;;;2.80;99.90;;;;;;5089227;28;20084;-71
2020/12/29 09:09:31;;;;;;;2.67;1.10;;;2.90;99.90;;;;;;5088353;28;20052;-71
2020/12/29 09:12:06;;;;;;;3.10;1.30;;;2.80;99.90;;;;;;5088490;28;20528;-71
2020/12/29 09:14:32;;;;;;;2.63;1.10;;;2.90;99.90;;;;;;5088620;28;20573;-71
2020/12/29 09:17:01;;;;;;;3.87;1.30;;;2.90;99.90;;;;;;5089308;28;20123;-71
2020/12/29 09:19:28;;;;;;;2.40;1.20;;;2.90;99.90;;;;;;5088275;28;20048;-71
2020/12/29 09:22:09;;;;;;;3.07;0.80;;;2.90;99.90;;;;;;5088670;28;20048;-74
2020/12/29 09:24:36;;;;;;;2.77;0.90;;;2.90;99.90;;;;;;5087997;28;20048;-73
2020/12/29 09:27:04;;;;;;;1.57;0.60;;;2.90;99.90;;;;;;5089256;28;20417;-72
2020/12/29 09:29:33;;;;;;;1.77;0.83;;;2.90;99.90;;;;;;5088993;28;20093;-72
2020/12/29 09:32:01;;;;;;;1.33;0.70;;;2.90;99.90;;;;;;5087252;28;20386;-72
2020/12/29 09:34:29;;;;;;;3.10;1.03;;;2.90;99.90;;;;;;5089485;28;20048;-72
2020/12/29 09:36:55;;;;;;;1.90;0.70;;;2.90;99.90;;;;;;5089106;28;20489;-72
2020/12/29 09:39:22;;;;;;;2.00;1.13;;;2.90;99.90;;;;;;5093169;28;20055;-72
2020/12/29 09:41:55;;;;;;;1.33;0.80;;;2.90;99.90;;;;;;5092009;28;20413;-72
2020/12/29 09:44:22;;;;;;;1.80;0.90;;;2.90;99.90;;;;;;5094052;28;20105;-72
2020/12/29 09:46:49;;;;;;;2.23;0.90;;;3.00;99.90;;;;;;5093470;28;20044;-72
2020/12/29 09:49:16;;;;;;;1.07;0.80;;;3.00;99.90;;;;;;5093850;28;20048;-72
2020/12/29 09:51:43;;;;;;;1.70;1.07;;;3.00;99.90;;;;;;5092938;28;20094;-72
2020/12/29 09:54:09;;;;;;;2.63;1.10;;;3.00;99.90;;;;;;5092375;28;20052;-72
2020/12/29 09:56:36;;;;;;;2.80;1.00;;;3.00;99.90;;;;;;5093201;28;20056;-72
2020/12/29 09:59:03;;;;;;;1.90;1.10;;;3.10;99.90;;;;;;5076504;28;20412;-72
2020/12/29 10:01:29;;;;;;;1.07;0.93;;;3.10;99.90;;;;;;5072418;28;20068;-72
2020/12/29 10:03:56;;;;;;;1.23;0.63;;;3.00;99.90;;;;;;5072124;28;20048;-72
2020/12/29 10:06:24;;;;;;;2.40;1.10;;;3.00;99.90;;;;;;5071927;28;20051;-72
2020/12/29 10:08:50;;;;;;;2.23;1.20;;;3.00;99.90;;;;;;5072687;28;20449;-72
2020/12/29 10:11:20;;;;;;;2.07;1.03;;;3.00;99.90;;;;;;5071604;28;20056;-74
2020/12/29 10:13:47;;;;;;;1.57;1.13;;;3.00;99.90;;;;;;5072724;28;20558;-74
2020/12/29 10:16:14;;;;;;;2.53;1.10;;;3.10;99.90;;;;;;5072497;28;20131;-74
2020/12/29 10:18:40;;;;;;;1.43;0.90;;;3.10;99.90;;;;;;5073011;28;20049;-72
2020/12/29 10:21:07;;;;;;;1.60;1.00;;;3.10;99.90;;;;;;5071250;28;20056;-72
2020/12/29 10:23:35;;;;;;;3.60;1.20;;;3.10;99.90;;;;;;5080040;28;20335;-72
2020/12/29 10:26:01;;;;;;;2.33;1.40;;;3.20;99.90;;;;;;5112970;28;20541;-72
2020/12/29 10:28:30;;;;;;;1.07;0.97;;;3.20;99.90;;;;;;5100725;28;20051;-77
2020/12/29 10:30:57;;;;;;;1.10;0.80;;;3.20;99.90;;;;;;5091874;28;20504;-72
2020/12/29 10:33:24;;;;;;;6.27;1.10;;;3.20;99.90;;;;;;5091470;28;20334;-72
2020/12/29 10:35:52;;;;;;;1.30;0.73;;;3.20;99.90;;;;;;5091501;28;20059;-71
2020/12/29 10:38:19;;;;;;;2.67;1.17;;;3.20;99.90;;;;;;5090022;28;20044;-74
2020/12/29 10:40:50;;;;;;;3.37;1.23;;;3.20;99.90;;;;;;5090992;28;20044;-73
2020/12/29 10:43:16;;;;;;;1.27;0.80;;;3.20;99.90;;;;;;5091100;28;20116;-73
2020/12/29 10:45:43;;;;;;;2.23;1.50;;;3.20;99.90;;;;;;5090587;28;20390;-74
2020/12/29 10:48:09;;;;;;;2.83;1.30;;;3.20;99.90;;;;;;5090840;28;20056;-74
2020/12/29 10:50:36;;;;;;;3.03;1.47;;;3.10;99.90;;;;;;5090237;28;20393;-74
2020/12/29 10:53:03;;;;;;;1.87;1.27;;;3.10;99.90;;;;;;5091127;28;20048;-78
2020/12/29 10:55:29;;;;;;;3.53;1.50;;;3.20;99.90;;;;;;5090641;28;20048;-73
2020/12/29 10:57:57;;;;;;;2.37;1.63;;;3.20;99.90;;;;;;5084475;28;20048;-74
2020/12/29 11:00:23;;;;;;;3.07;1.60;;;3.20;99.90;;;;;;5069973;28;20052;-73
2020/12/29 11:02:50;;;;;;;4.50;1.90;;;3.20;99.90;;;;;;5070126;28;20394;-72
2020/12/29 11:05:20;;;;;;;3.17;1.63;;;3.20;99.90;;;;;;5070590;28;20060;-72
2020/12/29 11:07:49;;;;;;;2.27;1.47;;;3.20;99.90;;;;;;5069484;28;20056;-72
2020/12/29 11:10:16;;;;;;;2.60;1.50;;;3.10;99.90;;;;;;5070126;28;20044;-72
2020/12/29 11:12:42;;;;;;;2.67;1.50;;;3.20;99.90;;;;;;5068991;28;20102;-72
2020/12/29 11:15:10;;;;;;;2.07;1.33;;;3.20;99.90;;;;;;5070664;28;20386;-71
2020/12/29 11:17:39;;;;;;;2.30;1.40;;;3.20;99.90;;;;;;5070426;28;20048;-72
2020/12/29 11:20:07;;;;;;;3.07;1.50;;;3.30;99.90;;;;;;5070817;28;20044;-72
2020/12/29 11:22:33;;;;;;;1.87;1.30;;;3.30;99.90;;;;;;5072200;28;20048;-71
2020/12/29 11:25:01;;;;;;;2.57;1.30;;;3.40;99.90;;;;;;5070339;28;20052;-71
2020/12/29 11:27:28;;;;;;;1.77;1.30;;;3.40;99.90;;;;;;5072761;28;20159;-71
2020/12/29 11:29:54;;;;;;;2.27;1.50;;;3.40;99.90;;;;;;5087373;28;20102;-72
2020/12/29 11:32:22;;;;;;;2.07;1.40;;;3.40;99.90;;;;;;5084834;28;20040;-73
2020/12/29 11:34:49;;;;;;;2.47;1.57;;;3.50;99.90;;;;;;5089909;28;20052;-74
2020/12/29 11:37:15;;;;;;;3.10;1.30;;;3.50;99.90;;;;;;5090254;28;20093;-73
2020/12/29 11:39:42;;;;;;;2.70;1.30;;;3.50;99.90;;;;;;5090213;28;20100;-73
2020/12/29 11:42:09;;;;;;;2.30;1.40;;;3.50;99.90;;;;;;5093037;28;20067;-73
2020/12/29 11:44:36;;;;;;;3.00;1.60;;;3.60;99.90;;;;;;5095885;28;20040;-73
2020/12/29 11:47:02;;;;;;;2.37;1.40;;;3.60;99.90;;;;;;5102017;28;20674;-73
2020/12/29 11:49:30;;;;;;;1.50;0.87;;;3.60;99.90;;;;;;5099211;28;20047;-73
2020/12/29 11:51:56;;;;;;;3.23;1.47;;;3.60;99.90;;;;;;5090346;28;20040;-72
2020/12/29 11:54:23;;;;;;;2.63;1.40;;;3.60;99.90;;;;;;5101994;28;20136;-72
2020/12/29 11:56:50;;;;;;;3.83;1.60;;;3.50;99.90;;;;;;5100375;28;20047;-72
2020/12/29 11:59:17;;;;;;;2.93;1.27;;;3.60;99.90;;;;;;5096090;28;20047;-72
2020/12/29 12:01:44;;;;;;;1.33;0.77;;;3.60;99.90;;;;;;5100330;28;20039;-72
2020/12/29 12:04:11;;;;;;;1.27;0.77;;;3.60;99.90;;;;;;5101158;28;20820;-72
2020/12/29 12:06:45;;;;;;;1.33;0.90;;;3.60;99.90;;;;;;5103097;28;20055;-72
2020/12/29 12:09:12;;;;;;;1.77;1.00;;;3.70;99.90;;;;;;5099283;28;21075;-72
2020/12/29 12:11:39;;;;;;;1.53;1.00;;;3.60;99.90;;;;;;5097371;28;20080;-72
2020/12/29 12:14:06;;;;;;;1.83;1.03;;;3.60;99.90;;;;;;5097397;28;20131;-72
2020/12/29 12:16:38;;;;;;;1.40;1.00;;;3.60;99.90;;;;;;5093628;28;20513;-74
2020/12/29 12:19:04;;;;;;;1.80;0.80;;;3.70;99.90;;;;;;5089964;28;20055;-74
2020/12/29 12:21:31;;;;;;;1.90;0.90;;;3.70;99.90;;;;;;5100060;28;20048;-74
2020/12/29 12:23:59;;;;;;;1.23;0.60;;;3.70;99.90;;;;;;5090800;28;20048;-74
2020/12/29 12:26:27;;;;;;;0.77;0.53;;;3.70;99.90;;;;;;5095134;28;20048;-74
2020/12/29 12:28:54;;;;;;;2.30;1.00;;;3.70;99.90;;;;;;5097414;28;20090;-74
2020/12/29 12:31:23;;;;;;;1.13;0.70;;;3.80;99.90;;;;;;5099941;28;20492;-74
2020/12/29 12:33:50;;;;;;;1.20;0.50;;;3.80;99.90;;;;;;5111787;28;20066;-74
2020/12/29 12:36:17;;;;;;;1.87;0.90;;;3.70;99.90;;;;;;5115312;28;20047;-74
2020/12/29 12:38:44;;;;;;;0.90;0.67;;;3.80;99.90;;;;;;5112563;28;20051;-74
2020/12/29 12:41:13;;;;;;;0.67;0.60;;;3.80;99.90;;;;;;5115093;28;20507;-74
2020/12/29 12:43:40;;;;;;;2.10;0.87;;;3.80;99.90;;;;;;5117550;28;20050;-73
2020/12/29 12:46:08;;;;;;;5.07;0.77;;;3.80;99.90;;;;;;5105322;28;20578;-76
2020/12/29 12:48:38;;;;;;;0.70;0.60;;;3.90;99.90;;;;;;5106729;28;20049;-74
2020/12/29 12:51:05;;;;;;;0.97;0.63;;;3.90;99.90;;;;;;5103135;28;20134;-74
2020/12/29 12:53:32;;;;;;;1.03;0.70;;;4.00;99.90;;;;;;5101217;28;20051;-73